Map

Track Data

SID SEASON NUMBER BASIN SUBBASIN NAME ISO_TIME NATURE LAT LON WMO_WIND WMO_PRES WMO_AGENCY TRACK_TYPE DIST2LAND LANDFALL IFLAG USA_AGENCY USA_ATCF_ID USA_LAT USA_LON USA_RECORD USA_STATUS USA_WIND USA_PRES USA_SSHS USA_R34_NE USA_R34_SE USA_R34_SW USA_R34_NW USA_R50_NE USA_R50_SE USA_R50_SW USA_R50_NW USA_R64_NE USA_R64_SE USA_R64_SW USA_R64_NW USA_POCI USA_ROCI USA_RMW USA_EYE TOKYO_LAT TOKYO_LON TOKYO_GRADE TOKYO_WIND TOKYO_PRES TOKYO_R50_DIR TOKYO_R50_LONG TOKYO_R50_SHORT TOKYO_R30_DIR TOKYO_R30_LONG TOKYO_R30_SHORT TOKYO_LAND CMA_LAT CMA_LON CMA_CAT CMA_WIND CMA_PRES HKO_LAT HKO_LON HKO_CAT HKO_WIND HKO_PRES NEWDELHI_LAT NEWDELHI_LON NEWDELHI_GRADE NEWDELHI_WIND NEWDELHI_PRES NEWDELHI_CI NEWDELHI_DP NEWDELHI_POCI REUNION_LAT REUNION_LON REUNION_TYPE REUNION_WIND REUNION_PRES REUNION_TNUM REUNION_CI REUNION_RMW REUNION_R34_NE REUNION_R34_SE REUNION_R34_SW REUNION_R34_NW REUNION_R50_NE REUNION_R50_SE REUNION_R50_SW REUNION_R50_NW REUNION_R64_NE REUNION_R64_SE REUNION_R64_SW REUNION_R64_NW BOM_LAT BOM_LON BOM_TYPE BOM_WIND BOM_PRES BOM_TNUM BOM_CI BOM_RMW BOM_R34_NE BOM_R34_SE BOM_R34_SW BOM_R34_NW BOM_R50_NE BOM_R50_SE BOM_R50_SW BOM_R50_NW BOM_R64_NE BOM_R64_SE BOM_R64_SW BOM_R64_NW BOM_ROCI BOM_POCI BOM_EYE BOM_POS_METHOD BOM_PRES_METHOD NADI_LAT NADI_LON NADI_CAT NADI_WIND NADI_PRES WELLINGTON_LAT WELLINGTON_LON WELLINGTON_WIND WELLINGTON_PRES DS824_LAT DS824_LON DS824_STAGE DS824_WIND DS824_PRES TD9636_LAT TD9636_LON TD9636_STAGE TD9636_WIND TD9636_PRES TD9635_LAT TD9635_LON TD9635_WIND TD9635_PRES TD9635_ROCI NEUMANN_LAT NEUMANN_LON NEUMANN_CLASS NEUMANN_WIND NEUMANN_PRES MLC_LAT MLC_LON MLC_CLASS MLC_WIND MLC_PRES USA_GUST BOM_GUST BOM_GUST_PER REUNION_GUST REUNION_GUST_PER USA_SEAHGT USA_SEARAD_NE USA_SEARAD_SE USA_SEARAD_SW USA_SEARAD_NW STORM_SPEED STORM_DIR
1939213N25137 1939 43 WP MM NOT_NAMED 1939-08-01 10:00:00 NR 25.1000 137.100 main 897 892 __________O___ -1 25.1000 137.100 7 9 55
1939213N25137 1939 43 WP MM NOT_NAMED 1939-08-01 12:00:00 NR 25.2657 137.357 main 898 896 __________P___ -1 25.2657 137.357 7 9 55
1939213N25137 1939 43 WP MM NOT_NAMED 1939-08-01 15:00:00 NR 25.5080 137.746 main 900 885 __________P___ -1 25.5080 137.746 7 9 57
1939213N25137 1939 43 WP MM NOT_NAMED 1939-08-01 18:00:00 NR 25.7352 138.145 main 887 873 __________P___ -1 25.7352 138.145 7 9 60
1939213N25137 1939 43 WP MM NOT_NAMED 1939-08-01 21:00:00 NR 25.9389 138.558 main 879 868 __________P___ -1 25.9389 138.558 7 8 62
1939213N25137 1939 43 WP MM NOT_NAMED 1939-08-01 22:00:00 NR 26.0000 138.700 main 871 864 __________O___ -1 26.0000 138.700 7 8 66
1939213N25137 1939 43 WP MM NOT_NAMED 1939-08-02 00:00:00 NR 26.1115 138.990 main 871 864 __________P___ -1 26.1115 138.990 7 9 69
1939213N25137 1939 43 WP MM NOT_NAMED 1939-08-02 03:00:00 NR 26.2599 139.443 main 864 868 __________P___ -1 26.2599 139.443 7 9 71
1939213N25137 1939 43 WP MM NOT_NAMED 1939-08-02 06:00:00 NR 26.3997 139.920 main 874 873 __________P___ -1 26.3997 139.920 7 9 72
1939213N25137 1939 43 WP MM NOT_NAMED 1939-08-02 09:00:00 NR 26.5467 140.425 main 887 882 __________P___ -1 26.5467 140.425 7 10 72
1939213N25137 1939 43 WP MM NOT_NAMED 1939-08-02 10:00:00 NR 26.6000 140.600 main 887 887 __________O___ -1 26.6000 140.600 7 11 70
1939213N25137 1939 43 WP MM NOT_NAMED 1939-08-02 12:00:00 NR 26.7279 140.994 main 899 894 __________P___ -1 26.7279 140.994 7 12 70
1939213N25137 1939 43 WP MM NOT_NAMED 1939-08-02 15:00:00 NR 26.9322 141.611 main 899 890 __________P___ -1 26.9322 141.611 7 12 69
1939213N25137 1939 43 WP MM NOT_NAMED 1939-08-02 18:00:00 NR 27.1397 142.213 main 897 883 __________P___ -1 27.1397 142.213 7 11 68
1939213N25137 1939 43 WP MM NOT_NAMED 1939-08-02 21:00:00 NR 27.3380 142.747 main 888 880 __________P___ -1 27.3380 142.747 7 10 67
1939213N25137 1939 43 WP MM NOT_NAMED 1939-08-02 22:00:00 NR 27.4000 142.900 main 883 876 __________O___ -1 27.4000 142.900 7 8 64
1939213N25137 1939 43 WP MM NOT_NAMED 1939-08-03 00:00:00 NR 27.5104 143.147 main 879 868 __________P___ -1 27.5104 143.147 7 7 61
1939213N25137 1939 43 WP MM NOT_NAMED 1939-08-03 03:00:00 NR 27.6643 143.435 main 868 866 __________P___ -1 27.6643 143.435 7 5 56
1939213N25137 1939 43 WP MM NOT_NAMED 1939-08-03 06:00:00 NR 27.8096 143.654 main 869 853 __________P___ -1 27.8096 143.654 7 5 51
1939213N25137 1939 43 WP MM NOT_NAMED 1939-08-03 09:00:00 NR 27.9522 143.840 main 853 853 __________P___ -1 27.9522 143.840 7 4 49
1939213N25137 1939 43 WP MM NOT_NAMED 1939-08-03 10:00:00 NR 28.0000 143.900 main 857 851 __________O___ -1 28.0000 143.900 7 4 48
1939213N25137 1939 43 WP MM NOT_NAMED 1939-08-03 12:00:00 NR 28.0971 144.024 main 851 846 __________P___ -1 28.0971 144.024 7 4 49
1939213N25137 1939 43 WP MM NOT_NAMED 1939-08-03 15:00:00 NR 28.2457 144.220 main 850 840 __________P___ -1 28.2457 144.220 7 5 49
1939213N25137 1939 43 WP MM NOT_NAMED 1939-08-03 18:00:00 NR 28.3968 144.423 main 840 835 __________P___ -1 28.3968 144.423 7 5 50
1939213N25137 1939 43 WP MM NOT_NAMED 1939-08-03 21:00:00 NR 28.5491 144.630 main 840 830 __________P___ -1 28.5491 144.630 7 5 50
1939213N25137 1939 43 WP MM NOT_NAMED 1939-08-03 22:00:00 NR 28.6000 144.700 main 835 __________O___ -1 28.6000 144.700 7 5 50

Digital Typhoon Data and Search

About IBTrACS Database

This database is a web-friendly format of International Best Track Archive for Climate Stewardship (IBTrACS), a global best track data archive curated by NOAA dating back to 1842.

Updated: 2021-10-25